createdAt,value
2023-04-06T00:01:49.433Z,7.37
2023-04-06T00:04:17.159Z,7.43
2023-04-06T00:06:44.808Z,7.20
2023-04-06T00:09:12.494Z,7.87
2023-04-06T00:11:41.544Z,6.37
2023-04-06T00:14:09.253Z,7.97
2023-04-06T00:16:36.995Z,9.43
2023-04-06T00:19:04.710Z,7.07
2023-04-06T00:21:33.165Z,7.50
2023-04-06T00:24:00.965Z,6.70
2023-04-06T00:26:28.644Z,7.53
2023-04-06T00:28:59.519Z,7.50
2023-04-06T00:31:27.277Z,6.90
2023-04-06T00:33:55.079Z,10.13
2023-04-06T00:36:22.828Z,6.17
2023-04-06T00:38:50.764Z,6.60
2023-04-06T00:41:19.539Z,6.67
2023-04-06T00:43:47.214Z,8.30
2023-04-06T00:46:16.343Z,7.50
2023-04-06T00:48:44.162Z,7.03
2023-04-06T00:51:11.847Z,6.00
2023-04-06T00:53:39.482Z,11.07
2023-04-06T00:56:07.546Z,8.60
2023-04-06T00:58:38.891Z,7.00
2023-04-06T01:01:06.665Z,9.07
2023-04-06T01:03:35.896Z,7.00
2023-04-06T01:06:03.617Z,7.47
2023-04-06T01:08:31.415Z,8.00
2023-04-06T01:11:01.759Z,9.20
2023-04-06T01:13:29.609Z,11.20
2023-04-06T01:15:57.654Z,7.97
2023-04-06T01:18:28.014Z,9.37
2023-04-06T01:20:57.596Z,8.73
2023-04-06T01:23:26.713Z,8.90
2023-04-06T01:25:54.640Z,6.57
2023-04-06T01:28:22.340Z,8.13
2023-04-06T01:30:50.073Z,8.73
2023-04-06T01:33:17.721Z,8.93
2023-04-06T01:35:45.434Z,10.67
2023-04-06T01:38:13.168Z,8.47
2023-04-06T01:40:42.214Z,7.47
2023-04-06T01:43:09.941Z,8.97
2023-04-06T01:45:37.602Z,8.33
2023-04-06T01:48:05.689Z,15.10
2023-04-06T01:50:33.417Z,9.93
2023-04-06T01:53:01.441Z,8.60
2023-04-06T01:55:29.140Z,8.10
2023-04-06T01:57:58.231Z,9.83
2023-04-06T02:00:25.971Z,10.10
2023-04-06T02:02:53.874Z,11.17
2023-04-06T02:05:21.815Z,8.67
2023-04-06T02:07:50.035Z,9.83
2023-04-06T02:10:17.703Z,10.23
2023-04-06T02:12:45.456Z,13.30
2023-04-06T02:15:15.408Z,8.63
2023-04-06T02:17:43.352Z,11.20
2023-04-06T02:20:11.929Z,10.50
2023-04-06T02:22:39.618Z,8.30
2023-04-06T02:25:07.843Z,8.37
2023-04-06T02:27:35.603Z,8.13
2023-04-06T02:30:03.402Z,7.30
2023-04-06T02:32:32.446Z,9.17
2023-04-06T02:35:00.379Z,7.33
2023-04-06T02:37:28.037Z,10.30
2023-04-06T02:39:56.391Z,8.47
2023-04-06T02:42:24.090Z,8.07
2023-04-06T02:44:51.759Z,7.43
2023-04-06T02:47:19.482Z,7.77
2023-04-06T02:49:48.738Z,6.13
2023-04-06T02:52:16.610Z,11.93
2023-04-06T02:54:44.262Z,7.70
2023-04-06T02:57:11.991Z,11.77
2023-04-06T02:59:39.744Z,9.13
2023-04-06T03:02:07.525Z,7.53
2023-04-06T03:04:35.176Z,11.10
2023-04-06T03:07:04.305Z,8.40
2023-04-06T03:09:32.030Z,9.57
2023-04-06T03:11:59.722Z,8.90
2023-04-06T03:14:27.353Z,12.60
2023-04-06T03:16:55.067Z,8.00
2023-04-06T03:19:22.769Z,7.53
2023-04-06T03:21:50.703Z,7.23
2023-04-06T03:24:19.783Z,7.17
2023-04-06T03:26:47.449Z,10.17
2023-04-06T03:29:15.918Z,8.07
2023-04-06T03:31:43.827Z,8.30
2023-04-06T03:34:11.637Z,6.73
2023-04-06T03:36:39.428Z,8.67
2023-04-06T03:39:07.295Z,7.47
2023-04-06T03:41:36.843Z,9.10
2023-04-06T03:44:04.616Z,9.93
2023-04-06T03:49:00.055Z,9.63
2023-04-06T03:51:27.722Z,10.73
2023-04-06T03:53:55.717Z,10.13
2023-04-06T03:56:23.520Z,8.10
2023-04-06T03:58:52.785Z,11.20
2023-04-06T04:01:20.536Z,8.70
2023-04-06T04:03:50.281Z,11.97
2023-04-06T04:06:19.301Z,11.43
2023-04-06T04:08:47.005Z,11.27
2023-04-06T04:11:16.117Z,11.93
2023-04-06T04:13:43.798Z,11.07
2023-04-06T04:16:12.890Z,11.60
2023-04-06T04:18:40.712Z,10.50
2023-04-06T04:21:08.460Z,10.37
2023-04-06T04:23:37.376Z,10.33
2023-04-06T04:26:05.746Z,12.17
2023-04-06T04:28:33.457Z,10.90
2023-04-06T04:31:01.414Z,12.70
2023-04-06T04:33:30.490Z,13.90
2023-04-06T04:35:58.251Z,16.63
2023-04-06T04:38:25.925Z,10.73
2023-04-06T04:40:53.638Z,12.87
2023-04-06T04:43:21.289Z,10.30
2023-04-06T04:45:49.078Z,9.73
2023-04-06T04:48:16.783Z,9.90
2023-04-06T04:50:45.966Z,8.53
2023-04-06T04:53:13.685Z,8.83
2023-04-06T04:55:41.791Z,12.80
2023-04-06T04:58:11.967Z,11.13
2023-04-06T05:00:39.708Z,9.13
2023-04-06T05:03:07.664Z,9.33
2023-04-06T05:05:35.431Z,9.67
2023-04-06T05:08:04.850Z,9.93
2023-04-06T05:10:32.539Z,9.97
2023-04-06T05:13:00.281Z,11.43
2023-04-06T05:15:28.003Z,9.87
2023-04-06T05:17:56.038Z,10.83
2023-04-06T05:20:23.812Z,7.50
2023-04-06T05:22:51.513Z,7.83
2023-04-06T05:25:20.654Z,11.13
2023-04-06T05:27:48.410Z,8.50
2023-04-06T05:30:16.770Z,12.33
2023-04-06T05:32:45.377Z,8.30
2023-04-06T05:35:13.457Z,9.63
2023-04-06T05:37:42.096Z,12.43
2023-04-06T05:40:10.651Z,8.73
2023-04-06T05:42:40.143Z,8.97
2023-04-06T05:45:09.194Z,11.37
2023-04-06T05:47:37.020Z,10.97
2023-04-06T05:50:05.658Z,8.27
2023-04-06T05:52:33.520Z,10.57
2023-04-06T05:55:01.205Z,13.97
2023-04-06T05:57:29.160Z,10.40
2023-04-06T05:59:58.368Z,8.93
2023-04-06T06:02:26.171Z,8.80
2023-04-06T06:04:54.047Z,12.67
2023-04-06T06:07:21.798Z,8.40
2023-04-06T06:09:49.492Z,11.90
2023-04-06T06:12:17.190Z,12.23
2023-04-06T06:14:44.863Z,10.50
2023-04-06T06:17:16.135Z,10.83
2023-04-06T06:19:43.861Z,12.37
2023-04-06T06:22:11.556Z,11.07
2023-04-06T06:24:39.423Z,11.73
2023-04-06T06:27:08.687Z,9.70
2023-04-06T06:29:36.620Z,14.67
2023-04-06T06:32:04.416Z,10.13
2023-04-06T06:34:33.652Z,10.53
2023-04-06T06:37:01.688Z,10.87
2023-04-06T06:39:29.556Z,10.40
2023-04-06T06:41:57.537Z,11.40
2023-04-06T06:44:26.119Z,10.47
2023-04-06T06:46:53.849Z,9.20
2023-04-06T06:49:21.605Z,11.70
2023-04-06T06:51:50.747Z,14.47
2023-04-06T06:54:18.556Z,13.40
2023-04-06T06:56:46.305Z,10.17
2023-04-06T06:59:14.176Z,12.30
2023-04-06T07:01:42.073Z,13.37
2023-04-06T07:04:10.202Z,12.23
2023-04-06T07:06:38.280Z,13.90
2023-04-06T07:09:07.470Z,14.77
2023-04-06T07:11:35.272Z,10.90
2023-04-06T07:14:03.011Z,9.90
2023-04-06T07:16:31.025Z,10.77
2023-04-06T07:18:58.822Z,12.87
2023-04-06T07:21:27.609Z,11.97
2023-04-06T07:23:55.322Z,10.80
2023-04-06T07:26:24.354Z,14.67
2023-04-06T07:28:52.033Z,10.67
2023-04-06T07:31:19.758Z,10.03
2023-04-06T07:33:48.005Z,11.63
2023-04-06T07:36:15.934Z,11.57
2023-04-06T07:38:43.659Z,11.40
2023-04-06T07:41:11.442Z,10.73
2023-04-06T07:43:40.530Z,10.33
2023-04-06T07:46:08.436Z,11.43
2023-04-06T07:48:36.240Z,12.43
2023-04-06T07:51:04.485Z,11.43
2023-04-06T07:53:32.731Z,10.47
2023-04-06T07:56:00.742Z,10.07
2023-04-06T07:58:28.483Z,10.27
2023-04-06T08:00:58.695Z,12.73
2023-04-06T08:03:27.362Z,14.73
2023-04-06T08:05:56.212Z,9.83
2023-04-06T08:08:24.074Z,15.20
2023-04-06T08:10:51.740Z,13.13
2023-04-06T08:13:20.239Z,11.93
2023-04-06T08:15:48.145Z,12.47
2023-04-06T08:18:17.334Z,14.53
2023-04-06T08:20:44.999Z,14.77
2023-04-06T08:23:12.803Z,12.63
2023-04-06T08:25:40.540Z,9.80
2023-04-06T08:28:09.753Z,11.57
2023-04-06T08:30:38.213Z,10.80
2023-04-06T08:33:06.197Z,13.43
2023-04-06T08:35:35.630Z,9.57
2023-04-06T08:38:03.439Z,11.73
2023-04-06T08:40:31.227Z,14.40
2023-04-06T08:43:03.005Z,9.87
2023-04-06T08:45:30.820Z,11.23
2023-04-06T08:48:02.635Z,9.00
2023-04-06T08:50:31.836Z,10.03
2023-04-06T08:53:01.367Z,13.13
2023-04-06T08:55:29.273Z,12.47
2023-04-06T08:57:57.223Z,8.53
2023-04-06T09:00:25.211Z,8.77
2023-04-06T09:02:56.436Z,10.43
2023-04-06T09:05:26.538Z,10.43
2023-04-06T09:07:54.570Z,8.83
2023-04-06T09:10:26.088Z,9.47
2023-04-06T09:12:53.780Z,11.60
2023-04-06T09:15:24.727Z,14.57
2023-04-06T09:17:54.858Z,9.83
2023-04-06T09:20:26.813Z,10.57
2023-04-06T09:22:54.567Z,9.87
2023-04-06T09:25:24.881Z,13.03
2023-04-06T09:28:01.096Z,9.83
2023-04-06T09:30:28.993Z,10.70
2023-04-06T09:32:57.938Z,10.57
2023-04-06T09:35:27.433Z,11.53
2023-04-06T09:37:56.248Z,9.57
2023-04-06T09:40:25.816Z,14.53
2023-04-06T09:42:55.266Z,14.07
2023-04-06T09:45:23.063Z,8.63
2023-04-06T09:47:52.320Z,12.20
2023-04-06T09:50:21.209Z,11.73
2023-04-06T09:52:51.384Z,14.80
2023-04-06T09:55:23.620Z,12.03
2023-04-06T09:57:55.497Z,11.13
2023-04-06T10:00:24.418Z,11.93
2023-04-06T10:02:55.517Z,9.73
2023-04-06T10:05:29.670Z,11.27
2023-04-06T10:08:01.150Z,12.43
2023-04-06T10:10:31.377Z,9.67
2023-04-06T10:13:00.973Z,9.40
2023-04-06T10:15:29.722Z,9.03
2023-04-06T10:17:57.709Z,11.17
2023-04-06T10:20:30.826Z,9.33
2023-04-06T10:23:01.821Z,10.73
2023-04-06T10:25:30.484Z,8.50
2023-04-06T10:28:03.647Z,11.23
2023-04-06T10:30:32.047Z,9.83
2023-04-06T10:32:59.821Z,10.40
2023-04-06T10:35:38.548Z,11.30
2023-04-06T10:38:07.319Z,8.77
2023-04-06T10:40:38.061Z,9.93
2023-04-06T10:43:14.735Z,10.57
2023-04-06T10:45:44.145Z,9.37
2023-04-06T10:48:15.907Z,10.80
2023-04-06T10:50:43.925Z,10.37
2023-04-06T10:53:11.664Z,10.13
2023-04-06T10:55:42.190Z,9.10
2023-04-06T10:58:10.054Z,10.07
2023-04-06T11:00:50.674Z,9.47
2023-04-06T11:03:19.999Z,9.67
2023-04-06T11:05:48.513Z,8.93
2023-04-06T11:08:26.947Z,12.70
2023-04-06T11:10:54.819Z,13.33
2023-04-06T11:13:22.765Z,11.13
2023-04-06T11:15:51.818Z,13.70
2023-04-06T11:18:20.767Z,11.93
2023-04-06T11:20:50.340Z,12.43
2023-04-06T11:23:24.906Z,12.73
2023-04-06T11:25:53.763Z,9.73
2023-04-06T11:28:21.907Z,11.07
2023-04-06T11:30:51.117Z,12.83
2023-04-06T11:33:25.708Z,9.47
2023-04-06T11:35:53.485Z,12.73
2023-04-06T11:38:21.961Z,12.10
2023-04-06T11:40:55.023Z,10.60
2023-04-06T11:43:28.612Z,12.37
2023-04-06T11:46:04.098Z,12.93
2023-04-06T11:48:32.311Z,14.87
2023-04-06T11:51:01.886Z,13.40
2023-04-06T11:53:30.692Z,9.03
2023-04-06T11:55:58.477Z,6.43
2023-04-06T11:58:26.221Z,6.57
2023-04-06T12:00:54.093Z,7.60
2023-04-06T12:03:23.496Z,7.60
2023-04-06T12:05:51.306Z,5.87
2023-04-06T12:08:19.032Z,7.73
2023-04-06T12:10:46.735Z,6.53
2023-04-06T12:13:14.443Z,5.60
2023-04-06T12:15:42.245Z,7.27
2023-04-06T12:18:10.154Z,6.10
2023-04-06T12:20:39.262Z,6.93
2023-04-06T12:23:06.998Z,7.00
2023-04-06T12:25:34.692Z,7.43
2023-04-06T12:28:02.388Z,5.67
2023-04-06T12:30:30.320Z,5.13
2023-04-06T12:32:58.207Z,5.50
2023-04-06T12:35:26.173Z,5.23
2023-04-06T12:37:55.338Z,4.70
2023-04-06T12:40:23.000Z,5.53
2023-04-06T12:42:50.651Z,6.43
2023-04-06T12:45:20.489Z,5.80
2023-04-06T12:47:48.326Z,5.73
2023-04-06T12:50:16.016Z,7.07
2023-04-06T12:52:43.695Z,5.43
2023-04-06T12:55:12.909Z,6.83
2023-04-06T12:57:41.216Z,4.97
2023-04-06T13:00:10.093Z,6.63
2023-04-06T13:02:38.038Z,7.03
2023-04-06T13:05:06.381Z,8.43
2023-04-06T13:07:35.797Z,6.83
2023-04-06T13:10:03.614Z,6.03
2023-04-06T13:12:32.722Z,6.83
2023-04-06T13:15:00.988Z,5.40
2023-04-06T13:17:29.569Z,5.77
2023-04-06T13:19:57.485Z,4.50
2023-04-06T13:22:25.659Z,8.37
2023-04-06T13:24:53.334Z,8.30
2023-04-06T13:27:21.255Z,5.73
2023-04-06T13:29:50.332Z,8.57
2023-04-06T13:32:18.068Z,8.90
2023-04-06T13:34:45.991Z,7.07
2023-04-06T13:37:14.451Z,7.77
2023-04-06T13:39:42.200Z,6.10
2023-04-06T13:42:11.130Z,5.63
2023-04-06T13:44:38.902Z,5.20
2023-04-06T13:47:08.039Z,5.87
2023-04-06T13:49:36.320Z,5.30
2023-04-06T13:52:04.192Z,7.80
2023-04-06T13:54:31.817Z,7.47
2023-04-06T13:56:59.543Z,8.40
2023-04-06T13:59:27.220Z,6.53
2023-04-06T14:01:55.056Z,6.03
2023-04-06T14:04:24.048Z,6.43
2023-04-06T14:06:51.737Z,7.50
2023-04-06T14:09:19.593Z,7.03
2023-04-06T14:11:47.401Z,6.97
2023-04-06T14:14:15.541Z,7.27
2023-04-06T14:16:44.961Z,7.40
2023-04-06T14:19:13.083Z,10.07
2023-04-06T14:21:42.088Z,8.63
2023-04-06T14:24:10.426Z,8.57
2023-04-06T14:26:38.551Z,8.67
2023-04-06T14:29:06.657Z,6.73
2023-04-06T14:31:34.505Z,5.93
2023-04-06T14:34:03.323Z,6.80
2023-04-06T14:36:36.983Z,11.77
2023-04-06T14:39:06.760Z,6.67
2023-04-06T14:41:35.701Z,6.47
2023-04-06T14:44:03.945Z,7.67
2023-04-06T14:46:31.686Z,7.13
2023-04-06T14:48:59.731Z,7.97
2023-04-06T14:51:28.165Z,11.97
2023-04-06T14:53:55.767Z,12.30
2023-04-06T14:56:25.508Z,10.03
2023-04-06T14:58:53.523Z,7.30
2023-04-06T15:01:21.823Z,6.83
2023-04-06T15:03:49.938Z,6.60
2023-04-06T15:06:21.399Z,5.57
2023-04-06T15:08:49.517Z,5.33
2023-04-06T15:11:17.186Z,4.67
2023-04-06T15:13:46.251Z,5.63
2023-04-06T15:16:15.379Z,5.30
2023-04-06T15:18:43.030Z,4.93
2023-04-06T15:21:12.470Z,7.30
2023-04-06T15:23:40.084Z,5.90
2023-04-06T15:26:07.644Z,5.20
2023-04-06T15:28:35.338Z,3.93
2023-04-06T15:31:07.064Z,3.30
2023-04-06T15:33:35.008Z,3.90
2023-04-06T15:36:04.918Z,5.67
2023-04-06T15:38:33.074Z,7.90
2023-04-06T15:41:00.660Z,5.77
2023-04-06T15:43:28.357Z,4.70
2023-04-06T15:45:57.178Z,7.80
2023-04-06T15:48:26.245Z,4.03
2023-04-06T15:50:53.782Z,6.23
2023-04-06T15:53:21.329Z,6.93
2023-04-06T15:55:48.838Z,7.10
2023-04-06T15:58:16.485Z,4.50
2023-04-06T16:00:44.107Z,7.53
2023-04-06T16:03:12.125Z,6.53
2023-04-06T16:05:48.999Z,6.67
2023-04-06T16:08:27.054Z,6.30
2023-04-06T16:10:54.641Z,7.10
2023-04-06T16:13:22.238Z,5.80
2023-04-06T16:15:50.934Z,4.83
2023-04-06T16:18:18.738Z,4.47
2023-04-06T16:20:47.769Z,4.53
2023-04-06T16:23:15.475Z,6.27
2023-04-06T16:25:43.194Z,4.53
2023-04-06T16:28:10.927Z,6.43
2023-04-06T16:30:38.613Z,5.63
2023-04-06T16:33:06.336Z,5.37
2023-04-06T16:35:35.324Z,4.23
2023-04-06T16:38:04.317Z,4.83
2023-04-06T16:40:31.984Z,5.30
2023-04-06T16:42:59.572Z,4.70
2023-04-06T16:45:27.116Z,4.93
2023-04-06T16:47:54.746Z,4.37
2023-04-06T16:50:22.393Z,7.70
2023-04-06T16:52:50.085Z,4.90
2023-04-06T16:55:19.155Z,4.77
2023-04-06T16:57:49.068Z,5.57
2023-04-06T17:00:17.823Z,5.57
2023-04-06T17:02:48.093Z,4.17
2023-04-06T17:05:18.136Z,3.57
2023-04-06T17:07:45.743Z,3.73
2023-04-06T17:10:13.367Z,7.33
2023-04-06T17:12:42.322Z,3.57
2023-04-06T17:15:10.737Z,3.37
2023-04-06T17:17:38.983Z,4.23
2023-04-06T17:20:08.070Z,4.57
2023-04-06T17:22:36.014Z,4.77
2023-04-06T17:25:05.412Z,6.73
2023-04-06T17:27:33.042Z,4.57
2023-04-06T17:30:06.335Z,5.27
2023-04-06T17:32:34.763Z,4.00
2023-04-06T17:35:02.618Z,5.60
2023-04-06T17:37:30.311Z,5.03
2023-04-06T17:39:58.358Z,4.47
2023-04-06T17:42:25.950Z,5.53
2023-04-06T17:44:53.700Z,5.67
2023-04-06T17:47:22.717Z,6.30
2023-04-06T17:49:50.374Z,6.93
2023-04-06T17:52:17.980Z,5.70
2023-04-06T17:54:46.117Z,6.00
2023-04-06T17:57:13.632Z,7.07
2023-04-06T17:59:43.883Z,6.97
2023-04-06T18:02:13.983Z,8.30
2023-04-06T18:04:44.160Z,6.50
2023-04-06T18:07:12.229Z,5.90
2023-04-06T18:09:39.963Z,6.80
2023-04-06T18:12:08.277Z,9.50
2023-04-06T18:14:36.545Z,11.87
2023-04-06T18:17:04.167Z,5.83
2023-04-06T18:19:32.279Z,7.73
2023-04-06T18:22:01.299Z,6.00
2023-04-06T18:24:41.283Z,6.27
2023-04-06T18:27:10.261Z,10.20
2023-04-06T18:29:38.075Z,6.70
2023-04-06T18:32:06.972Z,6.90
2023-04-06T18:34:34.743Z,7.93
2023-04-06T18:37:03.706Z,6.30
2023-04-06T18:39:31.494Z,5.70
2023-04-06T18:41:59.414Z,7.77
2023-04-06T18:44:27.070Z,9.10
2023-04-06T18:46:55.631Z,6.40
2023-04-06T18:49:23.420Z,6.53
2023-04-06T18:51:51.191Z,6.53
2023-04-06T18:54:21.007Z,6.00
2023-04-06T18:56:49.265Z,7.40
2023-04-06T18:59:17.771Z,7.57
2023-04-06T19:01:46.830Z,8.77
2023-04-06T19:04:14.833Z,5.73
2023-04-06T19:06:42.866Z,7.90
2023-04-06T19:09:10.537Z,5.77
2023-04-06T19:11:39.497Z,6.07
2023-04-06T19:14:07.148Z,6.27
2023-04-06T19:16:40.692Z,7.70
2023-04-06T19:19:08.598Z,5.90
2023-04-06T19:21:36.290Z,7.63
2023-04-06T19:24:03.828Z,7.00
2023-04-06T19:26:32.672Z,6.57
2023-04-06T19:29:01.775Z,6.83
2023-04-06T19:31:29.413Z,8.67
2023-04-06T19:33:57.274Z,6.70
2023-04-06T19:36:25.095Z,6.53
2023-04-06T19:38:52.968Z,7.87
2023-04-06T19:41:21.454Z,6.33
2023-04-06T19:43:49.062Z,6.70
2023-04-06T19:46:18.099Z,8.10
2023-04-06T19:48:45.704Z,7.03
2023-04-06T19:51:13.443Z,7.83
2023-04-06T19:53:41.148Z,7.70
2023-04-06T19:56:10.063Z,8.37
2023-04-06T19:58:38.213Z,7.00
2023-04-06T20:01:06.014Z,8.27
2023-04-06T20:03:36.422Z,7.00
2023-04-06T20:06:04.284Z,7.63
2023-04-06T20:08:31.853Z,7.03
2023-04-06T20:11:03.131Z,10.67
2023-04-06T20:13:31.433Z,6.50
2023-04-06T20:15:59.076Z,6.20
2023-04-06T20:18:27.175Z,6.53
2023-04-06T20:20:56.154Z,5.93
2023-04-06T20:23:23.846Z,6.77
2023-04-06T20:25:51.531Z,6.97
2023-04-06T20:28:19.099Z,7.10
2023-04-06T20:30:46.714Z,7.30
2023-04-06T20:33:14.372Z,7.50
2023-04-06T20:35:42.112Z,7.67
2023-04-06T20:38:11.139Z,7.13
2023-04-06T20:40:39.973Z,6.53
2023-04-06T20:43:09.934Z,10.17
2023-04-06T20:45:38.961Z,7.10
2023-04-06T20:48:06.713Z,8.00
2023-04-06T20:50:34.349Z,8.17
2023-04-06T20:53:01.951Z,8.37
2023-04-06T20:55:31.271Z,7.43
2023-04-06T20:57:58.833Z,10.13
2023-04-06T21:00:26.566Z,7.63
2023-04-06T21:02:54.442Z,7.77
2023-04-06T21:05:22.221Z,9.47
2023-04-06T21:07:49.850Z,9.03
2023-04-06T21:10:17.523Z,7.40
2023-04-06T21:12:46.578Z,8.00
2023-04-06T21:15:14.433Z,8.07
2023-04-06T21:17:41.961Z,7.00
2023-04-06T21:20:11.214Z,6.93
2023-04-06T21:22:39.391Z,7.27
2023-04-06T21:25:08.199Z,7.83
2023-04-06T21:27:35.773Z,7.90
2023-04-06T21:30:05.358Z,9.07
2023-04-06T21:32:32.913Z,8.13
2023-04-06T21:35:00.599Z,10.40
2023-04-06T21:37:28.887Z,8.83
2023-04-06T21:39:57.580Z,8.40
2023-04-06T21:42:25.240Z,9.37
2023-04-06T21:44:53.125Z,9.03
2023-04-06T21:47:22.028Z,7.53
2023-04-06T21:49:49.742Z,9.23
2023-04-06T21:52:17.395Z,8.27
2023-04-06T21:54:45.094Z,7.73
2023-04-06T21:57:13.465Z,8.53
2023-04-06T21:59:41.199Z,7.17
2023-04-06T22:02:08.869Z,7.60
2023-04-06T22:04:38.000Z,7.97
2023-04-06T22:07:05.733Z,9.03
2023-04-06T22:09:33.496Z,9.77
2023-04-06T22:12:01.093Z,8.20
2023-04-06T22:14:28.672Z,8.00
2023-04-06T22:16:56.276Z,8.87
2023-04-06T22:19:23.834Z,13.80
2023-04-06T22:21:52.912Z,9.27
2023-04-06T22:24:21.002Z,8.53
2023-04-06T22:26:48.577Z,10.20
2023-04-06T22:29:17.085Z,9.17
2023-04-06T22:31:46.765Z,10.57
2023-04-06T22:34:15.214Z,11.27
2023-04-06T22:36:43.010Z,8.70
2023-04-06T22:39:12.144Z,10.17
2023-04-06T22:41:39.769Z,9.80
2023-04-06T22:44:07.406Z,9.70
2023-04-06T22:46:34.968Z,9.80
2023-04-06T22:49:03.975Z,10.90
2023-04-06T22:51:32.701Z,9.77
2023-04-06T22:54:00.466Z,10.17
2023-04-06T22:56:29.374Z,11.27
2023-04-06T22:58:56.975Z,13.13
2023-04-06T23:01:24.680Z,11.47
2023-04-06T23:03:52.356Z,11.57
2023-04-06T23:06:20.039Z,11.00
2023-04-06T23:08:48.007Z,11.17
2023-04-06T23:11:15.604Z,12.00
2023-04-06T23:13:44.518Z,11.30
2023-04-06T23:16:12.168Z,10.90
2023-04-06T23:18:39.875Z,14.33
2023-04-06T23:21:08.315Z,13.07
2023-04-06T23:23:35.896Z,11.90
2023-04-06T23:26:03.567Z,13.93
2023-04-06T23:28:31.451Z,13.10
2023-04-06T23:31:00.358Z,11.90
2023-04-06T23:33:29.004Z,12.80
2023-04-06T23:35:56.648Z,12.83
2023-04-06T23:38:24.305Z,12.77
2023-04-06T23:40:51.895Z,12.80
2023-04-06T23:43:19.553Z,12.70
2023-04-06T23:45:47.082Z,13.20
2023-04-06T23:48:16.004Z,13.20
2023-04-06T23:50:43.608Z,14.00
2023-04-06T23:53:11.213Z,15.70
2023-04-06T23:55:38.801Z,15.43
2023-04-06T23:58:06.481Z,13.40
